createdAt,value
2023-04-10T00:00:02.256Z,7.82
2023-04-10T00:02:31.799Z,8.45
2023-04-10T00:05:00.022Z,8.27
2023-04-10T00:07:27.524Z,8.13
2023-04-10T00:09:54.316Z,9.10
2023-04-10T00:12:21.264Z,11.02
2023-04-10T00:14:48.032Z,9.82
2023-04-10T00:17:14.760Z,10.82
2023-04-10T00:19:41.523Z,10.30
2023-04-10T00:22:08.311Z,10.48
2023-04-10T00:24:35.550Z,9.52
2023-04-10T00:27:02.666Z,10.35
2023-04-10T00:29:29.484Z,10.15
2023-04-10T00:31:56.395Z,9.68
2023-04-10T00:34:23.744Z,10.75
2023-04-10T00:36:50.490Z,10.93
2023-04-10T00:39:17.435Z,9.77
2023-04-10T00:41:44.134Z,11.82
2023-04-10T00:44:11.157Z,12.90
2023-04-10T00:46:39.961Z,11.73
2023-04-10T00:49:06.905Z,11.57
2023-04-10T00:51:33.872Z,11.02
2023-04-10T00:54:02.497Z,10.88
2023-04-10T00:56:32.192Z,10.90
2023-04-10T00:58:59.019Z,10.45
2023-04-10T01:01:26.096Z,9.65
2023-04-10T01:03:54.329Z,10.13
2023-04-10T01:06:42.342Z,9.68
2023-04-10T01:09:26.935Z,10.35
2023-04-10T01:12:10.544Z,10.07
2023-04-10T01:14:49.411Z,9.63
2023-04-10T01:17:19.309Z,11.43
2023-04-10T01:20:07.441Z,11.85
2023-04-10T01:22:41.597Z,10.85
2023-04-10T01:25:38.207Z,9.63
2023-04-10T01:28:18.717Z,10.43
2023-04-10T01:30:52.228Z,9.85
2023-04-10T01:33:22.404Z,10.07
2023-04-10T01:35:53.327Z,10.32
2023-04-10T01:38:22.891Z,11.18
2023-04-10T01:40:53.327Z,11.50
2023-04-10T01:43:31.341Z,11.48
2023-04-10T01:45:59.395Z,13.02
2023-04-10T01:48:26.402Z,12.82
2023-04-10T01:50:54.816Z,11.30
2023-04-10T01:53:23.143Z,11.85
2023-04-10T01:55:52.215Z,11.55
2023-04-10T01:58:19.398Z,10.90
2023-04-10T02:00:46.650Z,11.95
2023-04-10T02:03:15.139Z,10.23
2023-04-10T02:06:04.610Z,11.35
2023-04-10T02:08:43.554Z,12.20
2023-04-10T02:11:53.112Z,10.93
2023-04-10T02:14:23.060Z,10.35
2023-04-10T02:16:55.360Z,9.52
2023-04-10T02:19:25.245Z,11.20
2023-04-10T02:21:53.576Z,11.05
2023-04-10T02:24:21.257Z,10.35
2023-04-10T02:26:52.872Z,11.90
2023-04-10T02:29:20.127Z,12.25
2023-04-10T02:31:47.447Z,12.05
2023-04-10T02:34:15.924Z,12.07
2023-04-10T02:36:42.694Z,13.40
2023-04-10T02:39:11.813Z,13.27
2023-04-10T02:41:47.358Z,14.45
2023-04-10T02:44:14.785Z,13.10
2023-04-10T02:46:42.483Z,12.82
2023-04-10T02:49:10.472Z,13.35
2023-04-10T02:51:37.415Z,12.10
2023-04-10T02:54:04.960Z,13.07
2023-04-10T02:56:36.424Z,12.40
2023-04-10T02:59:03.594Z,11.57
2023-04-10T03:01:31.217Z,11.68
2023-04-10T03:03:59.032Z,10.57
2023-04-10T03:06:32.343Z,11.15
2023-04-10T03:08:59.485Z,10.45
2023-04-10T03:11:27.589Z,11.27
2023-04-10T03:13:54.936Z,11.68
2023-04-10T03:16:22.071Z,11.05
2023-04-10T03:18:48.985Z,11.10
2023-04-10T03:21:16.552Z,11.55
2023-04-10T03:23:43.323Z,10.85
2023-04-10T03:26:11.216Z,11.77
2023-04-10T03:28:39.666Z,9.98
2023-04-10T03:31:06.879Z,9.15
2023-04-10T03:33:36.364Z,10.20
2023-04-10T03:36:04.235Z,11.38
2023-04-10T03:38:33.139Z,11.15
2023-04-10T03:40:59.912Z,10.77
2023-04-10T03:43:31.278Z,9.63
2023-04-10T03:45:58.765Z,10.32
2023-04-10T03:48:28.277Z,10.43
2023-04-10T03:50:55.490Z,11.00
2023-04-10T03:53:23.141Z,11.18
2023-04-10T03:55:54.622Z,12.63
2023-04-10T03:58:23.034Z,12.25
2023-04-10T04:00:51.493Z,10.40
2023-04-10T04:03:41.343Z,11.35
2023-04-10T04:06:45.926Z,11.50
2023-04-10T04:09:36.419Z,10.38
2023-04-10T04:12:29.400Z,10.23
2023-04-10T04:15:23.767Z,12.40
2023-04-10T04:18:00.555Z,10.23
2023-04-10T04:20:39.643Z,9.95
2023-04-10T04:23:17.687Z,11.32
2023-04-10T04:26:03.543Z,13.60
2023-04-10T04:29:01.399Z,13.85
2023-04-10T04:31:47.136Z,12.80
2023-04-10T04:34:36.104Z,12.13
2023-04-10T04:37:21.296Z,11.00
2023-04-10T04:40:02.223Z,10.85
2023-04-10T04:42:51.992Z,11.75
2023-04-10T04:45:25.954Z,10.67
2023-04-10T04:48:07.011Z,12.90
2023-04-10T04:50:56.924Z,11.63
2023-04-10T04:53:38.616Z,11.02
2023-04-10T04:56:12.321Z,10.50
2023-04-10T04:58:57.648Z,11.25
2023-04-10T05:01:47.693Z,11.68
2023-04-10T05:04:25.039Z,10.63
2023-04-10T05:07:10.525Z,10.60
2023-04-10T05:10:06.182Z,11.32
2023-04-10T05:12:41.877Z,11.98
2023-04-10T05:15:29.094Z,12.48
2023-04-10T05:18:12.535Z,12.52
2023-04-10T05:24:01.724Z,11.35
2023-04-10T05:26:37.856Z,12.07
2023-04-10T05:29:26.586Z,12.82
2023-04-10T05:32:16.652Z,12.70
2023-04-10T05:35:03.979Z,12.77
2023-04-10T05:37:48.622Z,13.52
2023-04-10T05:40:26.992Z,11.98
2023-04-10T05:43:23.552Z,15.23
2023-04-10T05:46:16.450Z,14.65
2023-04-10T05:49:12.116Z,15.02
2023-04-10T05:51:53.578Z,16.35
2023-04-10T05:54:23.273Z,14.95
2023-04-10T05:59:58.090Z,14.85
2023-04-10T06:02:43.044Z,14.93
2023-04-10T06:05:18.588Z,12.35
2023-04-10T06:07:45.841Z,13.93
2023-04-10T06:10:14.418Z,14.23
2023-04-10T06:12:41.633Z,12.85
2023-04-10T06:15:10.737Z,13.65
2023-04-10T06:17:44.624Z,14.70
2023-04-10T06:20:11.971Z,12.60
2023-04-10T06:22:38.782Z,13.35
2023-04-10T06:25:07.279Z,11.68
2023-04-10T06:27:35.778Z,13.02
2023-04-10T06:30:03.046Z,12.23
2023-04-10T06:32:30.458Z,11.82
2023-04-10T06:34:58.082Z,13.38
2023-04-10T06:37:31.545Z,12.27
2023-04-10T06:40:10.406Z,14.57
2023-04-10T06:42:37.979Z,13.98
2023-04-10T06:45:13.283Z,13.30
2023-04-10T06:47:40.405Z,14.38
2023-04-10T06:50:07.409Z,15.45
2023-04-10T06:52:34.192Z,14.18
2023-04-10T06:55:00.939Z,14.18
2023-04-10T06:57:28.765Z,13.13
2023-04-10T06:59:55.644Z,10.95
2023-04-10T07:02:22.489Z,13.10
2023-04-10T07:04:49.946Z,10.90
2023-04-10T07:07:17.992Z,12.05
2023-04-10T07:09:44.981Z,11.32
2023-04-10T07:12:11.768Z,14.27
2023-04-10T07:14:38.634Z,11.52
2023-04-10T07:17:05.586Z,12.60
2023-04-10T07:19:32.346Z,12.52
2023-04-10T07:21:59.663Z,11.68
2023-04-10T07:24:26.435Z,12.02
2023-04-10T07:26:53.223Z,15.05
2023-04-10T07:29:20.966Z,13.05
2023-04-10T07:31:47.907Z,14.73
2023-04-10T07:34:15.578Z,13.10
2023-04-10T07:36:43.557Z,13.98
2023-04-10T07:39:11.259Z,12.23
2023-04-10T07:41:38.077Z,12.35
2023-04-10T07:44:04.956Z,11.15
2023-04-10T07:46:31.736Z,10.30
2023-04-10T07:48:58.536Z,7.88
2023-04-10T07:51:25.835Z,8.25
2023-04-10T07:53:52.547Z,10.95
2023-04-10T07:56:20.747Z,9.98
2023-04-10T07:58:47.812Z,8.52
2023-04-10T08:01:15.601Z,10.50
2023-04-10T08:03:44.830Z,8.70
2023-04-10T08:06:12.168Z,8.82
2023-04-10T08:08:40.343Z,9.30
2023-04-10T08:11:23.190Z,9.88
2023-04-10T08:13:51.610Z,7.60
2023-04-10T08:16:23.127Z,9.68
2023-04-10T08:18:49.862Z,8.93
2023-04-10T08:21:16.629Z,9.50
2023-04-10T08:23:43.369Z,7.80
2023-04-10T08:26:10.208Z,7.50
2023-04-10T08:28:37.799Z,8.13
2023-04-10T08:31:04.846Z,8.15
2023-04-10T08:33:31.755Z,8.90
2023-04-10T08:35:58.540Z,8.18
2023-04-10T08:38:27.555Z,8.68
2023-04-10T08:40:54.862Z,9.43
2023-04-10T08:43:21.658Z,7.13
2023-04-10T08:45:49.066Z,7.47
2023-04-10T08:48:18.505Z,7.30
2023-04-10T08:50:46.835Z,5.68
2023-04-10T08:53:14.863Z,6.15
2023-04-10T08:55:42.169Z,7.05
2023-04-10T08:58:09.152Z,7.00
2023-04-10T09:00:40.319Z,6.90
2023-04-10T09:03:11.964Z,7.22
2023-04-10T09:05:38.929Z,7.00
2023-04-10T09:08:08.608Z,7.40
2023-04-10T09:10:35.465Z,6.00
2023-04-10T09:13:02.387Z,5.70
2023-04-10T09:15:29.155Z,6.38
2023-04-10T09:18:00.598Z,8.25
2023-04-10T09:20:29.934Z,5.65
2023-04-10T09:22:56.869Z,5.40
2023-04-10T09:25:30.154Z,6.65
2023-04-10T09:28:08.359Z,7.80
2023-04-10T09:30:40.189Z,5.80
2023-04-10T09:33:30.395Z,5.70
2023-04-10T09:35:59.849Z,5.60
2023-04-10T09:38:26.927Z,5.07
2023-04-10T09:41:05.890Z,5.28
2023-04-10T09:43:32.899Z,4.85
2023-04-10T09:45:59.957Z,5.70
2023-04-10T09:48:26.825Z,4.88
2023-04-10T09:50:53.857Z,5.28
2023-04-10T09:53:21.770Z,4.40
2023-04-10T09:55:49.799Z,5.22
2023-04-10T09:58:18.834Z,4.70
2023-04-10T10:00:47.411Z,4.45
2023-04-10T10:03:19.571Z,4.15
2023-04-10T10:05:49.369Z,3.88
2023-04-10T10:08:16.778Z,3.60
2023-04-10T10:10:55.599Z,4.30
2023-04-10T10:13:49.815Z,4.40
2023-04-10T10:16:21.842Z,4.28
2023-04-10T10:19:10.837Z,4.03
2023-04-10T10:21:38.863Z,4.28
2023-04-10T10:24:09.043Z,4.70
2023-04-10T10:26:38.626Z,3.72
2023-04-10T10:29:10.555Z,3.10
2023-04-10T10:31:38.439Z,4.30
2023-04-10T10:34:09.800Z,4.55
2023-04-10T10:36:37.863Z,3.83
2023-04-10T10:39:13.313Z,4.88
2023-04-10T10:42:02.183Z,3.78
2023-04-10T10:44:28.876Z,4.05
2023-04-10T10:47:15.653Z,3.10
2023-04-10T10:49:59.786Z,3.72
2023-04-10T10:52:45.919Z,4.30
2023-04-10T10:55:42.256Z,3.40
2023-04-10T10:58:10.925Z,3.75
2023-04-10T11:00:53.188Z,3.78
2023-04-10T11:03:20.224Z,3.78
2023-04-10T11:05:55.875Z,3.88
2023-04-10T11:08:47.417Z,3.40
2023-04-10T11:11:23.342Z,4.28
2023-04-10T11:13:50.287Z,3.80
2023-04-10T11:16:17.293Z,4.10
2023-04-10T11:18:51.152Z,4.25
2023-04-10T11:21:23.627Z,3.53
2023-04-10T11:23:50.358Z,4.43
2023-04-10T11:26:35.896Z,4.20
2023-04-10T11:29:04.353Z,4.32
2023-04-10T11:31:31.649Z,3.47
2023-04-10T11:34:04.401Z,3.88
2023-04-10T11:36:32.517Z,4.47
2023-04-10T11:39:06.409Z,4.38
2023-04-10T11:41:41.687Z,4.95
2023-04-10T11:44:10.807Z,4.63
2023-04-10T11:46:42.929Z,4.20
2023-04-10T11:49:10.791Z,4.57
2023-04-10T11:51:38.796Z,5.15
2023-04-10T11:54:11.273Z,4.40
2023-04-10T11:56:39.872Z,4.28
2023-04-10T11:59:09.615Z,5.20
2023-04-10T12:01:38.371Z,4.18
2023-04-10T12:04:14.237Z,3.95
2023-04-10T12:06:45.434Z,6.90
2023-04-10T12:09:17.279Z,3.80
2023-04-10T12:11:59.557Z,4.40
2023-04-10T12:14:34.901Z,4.40
2023-04-10T12:17:03.070Z,4.63
2023-04-10T12:19:30.749Z,4.25
2023-04-10T12:21:58.850Z,4.68
2023-04-10T12:24:40.798Z,4.80
2023-04-10T12:27:08.529Z,4.45
2023-04-10T12:29:35.924Z,4.32
2023-04-10T12:32:09.687Z,3.90
2023-04-10T12:34:40.133Z,3.95
2023-04-10T12:37:09.788Z,4.75
2023-04-10T12:39:36.586Z,4.47
2023-04-10T12:42:22.589Z,3.90
2023-04-10T12:45:00.698Z,4.25
2023-04-10T12:47:29.193Z,4.32
2023-04-10T12:50:12.509Z,4.10
2023-04-10T12:52:42.444Z,4.38
2023-04-10T12:55:17.342Z,4.28
2023-04-10T12:57:46.785Z,4.00
2023-04-10T13:00:16.504Z,4.28
2023-04-10T13:02:43.718Z,4.13
2023-04-10T13:05:11.416Z,4.10
2023-04-10T13:07:38.836Z,4.93
2023-04-10T13:10:07.331Z,4.32
2023-04-10T13:12:38.923Z,4.40
2023-04-10T13:15:07.551Z,4.15
2023-04-10T13:17:34.756Z,4.65
2023-04-10T13:20:01.899Z,4.13
2023-04-10T13:22:28.928Z,4.40
2023-04-10T13:24:55.820Z,3.55
2023-04-10T13:27:22.572Z,4.70
2023-04-10T13:29:49.312Z,4.13
2023-04-10T13:32:16.192Z,4.45
2023-04-10T13:34:42.963Z,4.80
2023-04-10T13:37:13.103Z,4.53
2023-04-10T13:39:40.260Z,4.55
2023-04-10T13:42:07.044Z,4.07
2023-04-10T13:44:33.799Z,4.82
2023-04-10T13:47:00.660Z,4.00
2023-04-10T13:49:30.330Z,4.15
2023-04-10T13:51:58.044Z,5.90
2023-04-10T13:54:26.549Z,4.68
2023-04-10T13:56:54.495Z,6.35
2023-04-10T13:59:21.442Z,4.25
2023-04-10T14:01:50.837Z,4.03
2023-04-10T14:04:18.341Z,4.50
2023-04-10T14:06:45.058Z,4.07
2023-04-10T14:09:11.855Z,4.25
2023-04-10T14:11:38.645Z,4.00
2023-04-10T14:14:05.360Z,4.35
2023-04-10T14:16:32.169Z,4.75
2023-04-10T14:18:58.942Z,4.10
2023-04-10T14:21:26.278Z,3.80
2023-04-10T14:23:53.050Z,3.40
2023-04-10T14:26:19.860Z,4.57
2023-04-10T14:28:46.703Z,4.25
2023-04-10T14:31:13.553Z,3.67
2023-04-10T14:33:40.527Z,4.20
2023-04-10T14:36:07.570Z,4.07
2023-04-10T14:38:36.568Z,3.53
2023-04-10T14:41:03.515Z,4.13
2023-04-10T14:43:30.539Z,3.67
2023-04-10T14:45:57.361Z,3.60
2023-04-10T14:48:24.441Z,3.75
2023-04-10T14:50:51.251Z,3.75
2023-04-10T14:53:18.164Z,4.03
2023-04-10T14:55:45.009Z,3.60
2023-04-10T14:58:11.969Z,3.45
2023-04-10T15:00:38.800Z,3.72
2023-04-10T15:03:06.543Z,3.47
2023-04-10T15:05:33.594Z,4.65
2023-04-10T15:08:00.676Z,3.40
2023-04-10T15:10:30.654Z,4.15
2023-04-10T15:12:57.375Z,3.85
2023-04-10T15:15:24.273Z,4.10
2023-04-10T15:17:51.048Z,3.67
2023-04-10T15:20:17.972Z,3.80
2023-04-10T15:22:45.518Z,4.00
2023-04-10T15:25:12.301Z,3.47
2023-04-10T15:27:39.537Z,3.13
2023-04-10T15:30:07.109Z,4.97
2023-04-10T15:32:36.534Z,3.85
2023-04-10T15:35:03.625Z,5.00
2023-04-10T15:37:30.311Z,4.68
2023-04-10T15:39:57.049Z,3.92
2023-04-10T15:42:23.792Z,4.00
2023-04-10T15:44:50.521Z,3.50
2023-04-10T15:47:17.466Z,4.95
2023-04-10T15:49:44.313Z,3.78
2023-04-10T15:52:11.368Z,3.92
2023-04-10T15:54:39.716Z,3.88
2023-04-10T15:57:06.580Z,3.33
2023-04-10T15:59:34.277Z,3.45
2023-04-10T16:02:01.479Z,3.70
2023-04-10T16:04:28.960Z,4.00
2023-04-10T16:06:56.620Z,4.00
2023-04-10T16:09:26.440Z,4.53
2023-04-10T16:11:54.740Z,3.78
2023-04-10T16:14:22.412Z,3.70
2023-04-10T16:16:49.477Z,4.57
2023-04-10T16:19:16.284Z,3.85
2023-04-10T16:21:43.118Z,4.25
2023-04-10T16:24:10.118Z,3.13
2023-04-10T16:26:36.973Z,3.13
2023-04-10T16:29:03.750Z,3.42
2023-04-10T16:31:31.034Z,4.78
2023-04-10T16:33:57.948Z,3.88
2023-04-10T16:36:24.696Z,3.55
2023-04-10T16:38:51.934Z,3.60
2023-04-10T16:41:20.560Z,3.83
2023-04-10T16:43:47.873Z,3.20
2023-04-10T16:46:14.937Z,3.67
2023-04-10T16:48:41.992Z,3.17
2023-04-10T16:51:19.043Z,3.83
2023-04-10T16:53:45.758Z,2.83
2023-04-10T16:56:12.582Z,4.22
2023-04-10T16:58:41.175Z,3.22
2023-04-10T17:01:18.148Z,3.20
2023-04-10T17:03:47.364Z,3.13
2023-04-10T17:06:14.890Z,2.97
2023-04-10T17:08:41.735Z,4.97
2023-04-10T17:11:08.631Z,3.47
2023-04-10T17:13:36.971Z,4.05
2023-04-10T17:16:05.279Z,4.40
2023-04-10T17:18:32.602Z,3.35
2023-04-10T17:20:59.770Z,3.22
2023-04-10T17:23:26.822Z,4.05
2023-04-10T17:25:54.045Z,3.20
2023-04-10T17:28:21.076Z,2.88
2023-04-10T17:30:48.329Z,3.15
2023-04-10T17:33:15.856Z,3.70
2023-04-10T17:35:43.130Z,3.25
2023-04-10T17:38:10.116Z,3.03
2023-04-10T17:40:40.813Z,3.83
2023-04-10T17:43:08.287Z,3.45
2023-04-10T17:45:41.422Z,3.90
2023-04-10T17:48:08.949Z,3.53
2023-04-10T17:50:35.799Z,3.38
2023-04-10T17:53:02.556Z,3.22
2023-04-10T17:55:29.395Z,3.42
2023-04-10T17:57:57.783Z,3.70
2023-04-10T18:00:24.853Z,3.83
2023-04-10T18:02:57.910Z,4.55
2023-04-10T18:05:25.041Z,5.50
2023-04-10T18:07:51.771Z,2.72
2023-04-10T18:10:18.905Z,3.50
2023-04-10T18:12:45.847Z,3.83
2023-04-10T18:15:14.422Z,3.80
2023-04-10T18:17:41.418Z,3.85
2023-04-10T18:20:09.015Z,2.58
2023-04-10T18:22:35.841Z,3.78
2023-04-10T18:25:02.645Z,2.88
2023-04-10T18:27:31.589Z,3.90
2023-04-10T18:29:58.616Z,3.05
2023-04-10T18:32:25.428Z,3.05
2023-04-10T18:34:52.273Z,3.00
2023-04-10T18:37:19.040Z,3.08
2023-04-10T18:39:45.887Z,4.03
2023-04-10T18:42:12.609Z,3.83
2023-04-10T18:44:39.394Z,3.70
2023-04-10T18:47:06.185Z,2.53
2023-04-10T18:49:33.247Z,2.40
2023-04-10T18:52:00.972Z,3.83
2023-04-10T18:54:27.768Z,4.05
2023-04-10T18:56:54.539Z,2.55
2023-04-10T18:59:21.329Z,2.60
2023-04-10T19:01:48.200Z,2.85
2023-04-10T19:04:15.856Z,2.80
2023-04-10T19:06:44.243Z,3.10
2023-04-10T19:09:11.022Z,2.53
2023-04-10T19:11:38.392Z,2.25
2023-04-10T19:14:06.177Z,2.38
2023-04-10T19:19:05.264Z,3.10
2023-04-10T19:21:32.419Z,2.58
2023-04-10T19:23:59.180Z,2.25
2023-04-10T19:26:26.114Z,3.60
2023-04-10T19:28:53.879Z,2.88
2023-04-10T19:31:21.031Z,2.78
2023-04-10T19:33:47.835Z,3.20
2023-04-10T19:36:15.822Z,2.95
2023-04-10T19:38:44.464Z,3.53
2023-04-10T19:41:15.723Z,4.72
2023-04-10T19:43:42.510Z,2.80
2023-04-10T19:46:17.420Z,3.63
2023-04-10T19:48:44.418Z,3.35
2023-04-10T19:51:11.266Z,3.13
2023-04-10T19:53:38.321Z,3.20
2023-04-10T19:56:05.719Z,3.85
2023-04-10T19:58:40.436Z,3.35
2023-04-10T20:01:12.316Z,3.97
2023-04-10T20:03:39.377Z,4.15
2023-04-10T20:06:08.030Z,4.10
2023-04-10T20:08:35.670Z,3.55
2023-04-10T20:11:06.020Z,3.05
2023-04-10T20:13:34.373Z,3.78
2023-04-10T20:16:01.294Z,3.90
2023-04-10T20:18:28.083Z,3.38
2023-04-10T20:20:54.851Z,4.78
2023-04-10T20:23:21.622Z,3.38
2023-04-10T20:25:48.396Z,4.20
2023-04-10T20:28:16.475Z,3.67
2023-04-10T20:30:43.979Z,3.38
2023-04-10T20:33:11.010Z,3.47
2023-04-10T20:35:38.076Z,4.15
2023-04-10T20:38:05.984Z,4.00
2023-04-10T20:40:42.078Z,3.15
2023-04-10T20:43:12.070Z,3.20
2023-04-10T20:45:39.578Z,3.15
2023-04-10T20:48:06.939Z,3.75
2023-04-10T20:50:33.838Z,2.92
2023-04-10T20:53:00.550Z,3.45
2023-04-10T20:55:27.376Z,5.22
2023-04-10T20:57:54.184Z,4.03
2023-04-10T21:00:21.159Z,3.75
2023-04-10T21:02:48.015Z,4.00
2023-04-10T21:05:14.808Z,3.88
2023-04-10T21:07:41.831Z,3.72
2023-04-10T21:10:08.721Z,3.42
2023-04-10T21:12:35.423Z,3.10
2023-04-10T21:15:02.280Z,2.92
2023-04-10T21:17:31.298Z,3.50
2023-04-10T21:19:58.962Z,3.17
2023-04-10T21:22:28.661Z,2.90
2023-04-10T21:24:56.235Z,3.35
2023-04-10T21:27:22.955Z,3.25
2023-04-10T21:29:49.651Z,3.50
2023-04-10T21:32:16.561Z,4.13
2023-04-10T21:34:43.416Z,5.05
2023-04-10T21:37:10.352Z,4.70
2023-04-10T21:39:41.104Z,5.35
2023-04-10T21:42:07.858Z,4.32
2023-04-10T21:44:34.600Z,5.80
2023-04-10T21:47:01.383Z,4.53
2023-04-10T21:49:28.154Z,4.70
2023-04-10T21:51:55.278Z,4.38
2023-04-10T21:54:22.056Z,5.50
2023-04-10T21:56:48.826Z,6.13
2023-04-10T21:59:15.791Z,5.07
2023-04-10T22:01:43.351Z,6.00
2023-04-10T22:04:11.909Z,5.97
2023-04-10T22:06:38.960Z,5.25
2023-04-10T22:09:05.822Z,5.50
2023-04-10T22:11:33.321Z,5.50
2023-04-10T22:14:05.641Z,5.43
2023-04-10T22:16:39.760Z,4.90
2023-04-10T22:19:06.663Z,4.90
2023-04-10T22:21:33.418Z,4.63
2023-04-10T22:24:00.205Z,4.63
2023-04-10T22:26:26.932Z,4.97
2023-04-10T22:28:54.135Z,6.32
2023-04-10T22:31:21.288Z,5.65
2023-04-10T22:33:49.223Z,6.78
2023-04-10T22:36:16.003Z,7.22
2023-04-10T22:38:43.035Z,6.95
2023-04-10T22:41:10.929Z,7.20
2023-04-10T22:43:37.758Z,5.47
2023-04-10T22:46:04.805Z,6.32
2023-04-10T22:48:32.575Z,6.18
2023-04-10T22:50:59.366Z,5.70
2023-04-10T22:53:27.345Z,6.13
2023-04-10T22:55:54.156Z,6.68
2023-04-10T22:58:20.896Z,6.82
2023-04-10T23:00:47.617Z,5.47
2023-04-10T23:03:14.455Z,6.45
2023-04-10T23:05:41.271Z,6.43
2023-04-10T23:08:08.007Z,7.45
2023-04-10T23:10:34.753Z,6.50
2023-04-10T23:13:01.669Z,6.15
2023-04-10T23:15:28.410Z,5.97
2023-04-10T23:17:55.799Z,5.47
2023-04-10T23:20:22.788Z,6.05
2023-04-10T23:22:49.570Z,5.70
2023-04-10T23:25:16.361Z,7.78
2023-04-10T23:27:43.238Z,5.93
2023-04-10T23:30:10.231Z,7.55
2023-04-10T23:32:37.128Z,8.27
2023-04-10T23:35:03.985Z,5.47
2023-04-10T23:37:33.694Z,6.43
2023-04-10T23:40:00.483Z,8.25
2023-04-10T23:42:27.208Z,6.63
2023-04-10T23:44:54.083Z,6.22
2023-04-10T23:47:20.781Z,6.35
2023-04-10T23:49:47.493Z,5.85
2023-04-10T23:52:14.269Z,7.13
2023-04-10T23:54:42.958Z,7.43
2023-04-10T23:57:09.951Z,6.88
2023-04-10T23:59:36.753Z,6.43
